sensor_id;sensor_type;location;lat;lon;timestamp;pressure;altitude;pressure_sealevel;temperature;humidity
75420;BME280;63998;52.488;13.428;2023-09-12T00:00:43;100672.25;;;22.82;53.85
75420;BME280;63998;52.488;13.428;2023-09-12T00:03:08;100665.38;;;22.78;54.16
75420;BME280;63998;52.488;13.428;2023-09-12T00:05:34;100668.81;;;22.80;53.99
75420;BME280;63998;52.488;13.428;2023-09-12T00:07:59;100667.09;;;22.79;54.01
75420;BME280;63998;52.488;13.428;2023-09-12T00:10:25;100671.53;;;22.78;54.11
75420;BME280;63998;52.488;13.428;2023-09-12T00:12:50;100670.69;;;22.78;54.17
75420;BME280;63998;52.488;13.428;2023-09-12T00:15:16;100676.84;;;22.78;54.25
75420;BME280;63998;52.488;13.428;2023-09-12T00:17:41;100667.25;;;22.76;54.22
75420;BME280;63998;52.488;13.428;2023-09-12T00:20:07;100677.06;;;22.74;54.36
75420;BME280;63998;52.488;13.428;2023-09-12T00:22:33;100675.69;;;22.65;55.04
75420;BME280;63998;52.488;13.428;2023-09-12T00:24:58;100670.63;;;22.61;55.18
75420;BME280;63998;52.488;13.428;2023-09-12T00:27:24;100673.44;;;22.57;54.76
75420;BME280;63998;52.488;13.428;2023-09-12T00:29:49;100678.16;;;22.51;54.68
75420;BME280;63998;52.488;13.428;2023-09-12T00:32:14;100682.44;;;22.53;53.98
75420;BME280;63998;52.488;13.428;2023-09-12T00:34:40;100671.84;;;22.53;53.76
75420;BME280;63998;52.488;13.428;2023-09-12T00:37:05;100665.88;;;22.50;53.67
75420;BME280;63998;52.488;13.428;2023-09-12T00:39:30;100669.88;;;22.40;53.55
75420;BME280;63998;52.488;13.428;2023-09-12T00:41:56;100670.03;;;22.37;53.09
75420;BME280;63998;52.488;13.428;2023-09-12T00:44:21;100670.72;;;22.40;53.50
75420;BME280;63998;52.488;13.428;2023-09-12T00:46:49;100674.31;;;22.39;53.39
75420;BME280;63998;52.488;13.428;2023-09-12T00:49:16;100678.59;;;22.42;53.11
75420;BME280;63998;52.488;13.428;2023-09-12T00:51:44;100678.53;;;22.43;52.71
75420;BME280;63998;52.488;13.428;2023-09-12T00:54:10;100669.72;;;22.43;52.47
75420;BME280;63998;52.488;13.428;2023-09-12T00:56:36;100671.72;;;22.38;52.73
75420;BME280;63998;52.488;13.428;2023-09-12T00:59:02;100672.59;;;22.38;52.76
75420;BME280;63998;52.488;13.428;2023-09-12T01:01:28;100665.75;;;22.34;52.78
75420;BME280;63998;52.488;13.428;2023-09-12T01:03:54;100674.47;;;22.36;53.14
75420;BME280;63998;52.488;13.428;2023-09-12T01:06:22;100669.31;;;22.33;53.60
75420;BME280;63998;52.488;13.428;2023-09-12T01:08:48;100676.47;;;22.31;53.59
75420;BME280;63998;52.488;13.428;2023-09-12T01:11:13;100671.31;;;22.28;53.87
75420;BME280;63998;52.488;13.428;2023-09-12T01:13:39;100682.06;;;22.25;54.11
75420;BME280;63998;52.488;13.428;2023-09-12T01:16:04;100677.72;;;22.24;53.88
75420;BME280;63998;52.488;13.428;2023-09-12T01:18:29;100677.06;;;22.19;54.13
75420;BME280;63998;52.488;13.428;2023-09-12T01:24:01;100669.56;;;22.10;54.10
75420;BME280;63998;52.488;13.428;2023-09-12T01:29:36;100665.97;;;22.11;54.48
75420;BME280;63998;52.488;13.428;2023-09-12T01:32:03;100672.19;;;22.10;54.29
75420;BME280;63998;52.488;13.428;2023-09-12T01:34:28;100668.75;;;22.08;54.40
75420;BME280;63998;52.488;13.428;2023-09-12T01:36:54;100670.63;;;22.06;54.64
75420;BME280;63998;52.488;13.428;2023-09-12T01:39:19;100675.25;;;22.01;54.39
75420;BME280;63998;52.488;13.428;2023-09-12T01:41:46;100677.31;;;21.94;54.09
75420;BME280;63998;52.488;13.428;2023-09-12T01:44:13;100676.56;;;21.91;53.74
75420;BME280;63998;52.488;13.428;2023-09-12T01:46:39;100676.56;;;21.91;53.97
75420;BME280;63998;52.488;13.428;2023-09-12T01:49:07;100672.31;;;21.88;54.36
75420;BME280;63998;52.488;13.428;2023-09-12T01:51:34;100674.72;;;21.93;54.17
75420;BME280;63998;52.488;13.428;2023-09-12T01:54:00;100670.28;;;21.93;54.12
75420;BME280;63998;52.488;13.428;2023-09-12T01:56:25;100667.72;;;21.92;53.59
75420;BME280;63998;52.488;13.428;2023-09-12T01:58:51;100669.44;;;21.93;53.52
75420;BME280;63998;52.488;13.428;2023-09-12T02:01:16;100663.41;;;21.89;53.90
75420;BME280;63998;52.488;13.428;2023-09-12T02:03:42;100671.44;;;21.88;53.70
75420;BME280;63998;52.488;13.428;2023-09-12T02:06:07;100671.59;;;21.84;54.10
75420;BME280;63998;52.488;13.428;2023-09-12T02:08:32;100665.31;;;21.87;53.80
75420;BME280;63998;52.488;13.428;2023-09-12T02:10:58;100666.28;;;21.84;53.80
75420;BME280;63998;52.488;13.428;2023-09-12T02:13:23;100658.63;;;21.78;54.05
75420;BME280;63998;52.488;13.428;2023-09-12T02:15:48;100656.13;;;21.75;54.32
75420;BME280;63998;52.488;13.428;2023-09-12T02:18:13;100655.41;;;21.72;55.09
75420;BME280;63998;52.488;13.428;2023-09-12T02:20:40;100659.97;;;21.68;55.63
75420;BME280;63998;52.488;13.428;2023-09-12T02:23:06;100649.53;;;21.65;56.12
75420;BME280;63998;52.488;13.428;2023-09-12T02:25:32;100661.13;;;21.63;56.70
75420;BME280;63998;52.488;13.428;2023-09-12T02:27:57;100660.41;;;21.59;57.09
75420;BME280;63998;52.488;13.428;2023-09-12T02:30:22;100659.66;;;21.56;57.52
75420;BME280;63998;52.488;13.428;2023-09-12T02:32:48;100655.53;;;21.50;57.80
75420;BME280;63998;52.488;13.428;2023-09-12T02:35:13;100651.28;;;21.46;58.23
75420;BME280;63998;52.488;13.428;2023-09-12T02:37:38;100650.63;;;21.41;58.46
75420;BME280;63998;52.488;13.428;2023-09-12T02:40:04;100643.78;;;21.37;58.67
75420;BME280;63998;52.488;13.428;2023-09-12T02:42:36;100654.59;;;21.31;59.02
75420;BME280;63998;52.488;13.428;2023-09-12T02:45:01;100644.31;;;21.25;59.36
75420;BME280;63998;52.488;13.428;2023-09-12T02:47:27;100648.81;;;21.23;59.45
75420;BME280;63998;52.488;13.428;2023-09-12T02:49:52;100647.25;;;21.17;59.62
75420;BME280;63998;52.488;13.428;2023-09-12T02:52:17;100655.22;;;21.15;59.57
75420;BME280;63998;52.488;13.428;2023-09-12T02:54:43;100649.25;;;21.12;60.01
75420;BME280;63998;52.488;13.428;2023-09-12T02:57:08;100651.94;;;21.10;59.94
75420;BME280;63998;52.488;13.428;2023-09-12T02:59:34;100645.75;;;21.11;59.92
75420;BME280;63998;52.488;13.428;2023-09-12T03:02:00;100644.94;;;21.09;60.03
75420;BME280;63998;52.488;13.428;2023-09-12T03:04:25;100634.38;;;21.09;59.72
75420;BME280;63998;52.488;13.428;2023-09-12T03:06:53;100635.16;;;21.11;59.54
75420;BME280;63998;52.488;13.428;2023-09-12T03:09:18;100636.09;;;21.10;59.43
75420;BME280;63998;52.488;13.428;2023-09-12T03:11:44;100634.38;;;21.09;59.44
75420;BME280;63998;52.488;13.428;2023-09-12T03:14:10;100639.78;;;21.06;59.55
75420;BME280;63998;52.488;13.428;2023-09-12T03:16:35;100631.78;;;21.08;58.87
75420;BME280;63998;52.488;13.428;2023-09-12T03:19:02;100635.28;;;21.08;58.94
75420;BME280;63998;52.488;13.428;2023-09-12T03:21:28;100629.09;;;21.09;58.66
75420;BME280;63998;52.488;13.428;2023-09-12T03:23:54;100638.88;;;21.07;58.58
75420;BME280;63998;52.488;13.428;2023-09-12T03:26:19;100631.72;;;21.09;58.55
75420;BME280;63998;52.488;13.428;2023-09-12T03:28:44;100632.66;;;21.08;58.38
75420;BME280;63998;52.488;13.428;2023-09-12T03:31:12;100625.66;;;21.07;58.36
75420;BME280;63998;52.488;13.428;2023-09-12T03:33:38;100635.47;;;21.04;57.97
75420;BME280;63998;52.488;13.428;2023-09-12T03:36:05;100638.19;;;21.02;58.12
75420;BME280;63998;52.488;13.428;2023-09-12T03:38:31;100635.69;;;20.99;58.17
75420;BME280;63998;52.488;13.428;2023-09-12T03:40:57;100640.19;;;20.97;58.32
75420;BME280;63998;52.488;13.428;2023-09-12T03:43:22;100638.59;;;20.93;58.38
75420;BME280;63998;52.488;13.428;2023-09-12T03:45:47;100636.94;;;20.91;58.07
75420;BME280;63998;52.488;13.428;2023-09-12T03:48:14;100642.31;;;20.89;58.13
75420;BME280;63998;52.488;13.428;2023-09-12T03:50:39;100644.16;;;20.87;58.06
75420;BME280;63998;52.488;13.428;2023-09-12T03:53:04;100649.44;;;20.87;58.19
75420;BME280;63998;52.488;13.428;2023-09-12T03:55:30;100649.53;;;20.84;58.75
75420;BME280;63998;52.488;13.428;2023-09-12T03:57:56;100644.38;;;20.81;58.98
75420;BME280;63998;52.488;13.428;2023-09-12T04:00:21;100653.09;;;20.83;59.16
75420;BME280;63998;52.488;13.428;2023-09-12T04:02:46;100652.25;;;20.83;59.04
75420;BME280;63998;52.488;13.428;2023-09-12T04:05:12;100654.81;;;20.84;59.06
75420;BME280;63998;52.488;13.428;2023-09-12T04:07:37;100652.97;;;20.86;58.80
75420;BME280;63998;52.488;13.428;2023-09-12T04:10:03;100649.47;;;20.86;58.96
75420;BME280;63998;52.488;13.428;2023-09-12T04:12:28;100644.25;;;20.84;59.18
75420;BME280;63998;52.488;13.428;2023-09-12T04:14:54;100649.78;;;20.78;59.40
75420;BME280;63998;52.488;13.428;2023-09-12T04:17:20;100651.66;;;20.76;59.49
75420;BME280;63998;52.488;13.428;2023-09-12T04:19:45;100651.78;;;20.73;59.78
75420;BME280;63998;52.488;13.428;2023-09-12T04:22:11;100651.84;;;20.71;59.87
75420;BME280;63998;52.488;13.428;2023-09-12T04:24:36;100647.59;;;20.67;59.97
75420;BME280;63998;52.488;13.428;2023-09-12T04:27:01;100660.84;;;20.66;60.22
75420;BME280;63998;52.488;13.428;2023-09-12T04:29:28;100657.44;;;20.64;60.25
75420;BME280;63998;52.488;13.428;2023-09-12T04:31:53;100654.78;;;20.64;60.13
75420;BME280;63998;52.488;13.428;2023-09-12T04:34:24;100652.16;;;20.64;59.85
75420;BME280;63998;52.488;13.428;2023-09-12T04:36:50;100650.44;;;20.63;59.85
75420;BME280;63998;52.488;13.428;2023-09-12T04:39:15;100653.03;;;20.64;59.41
75420;BME280;63998;52.488;13.428;2023-09-12T04:41:40;100655.72;;;20.63;59.53
75420;BME280;63998;52.488;13.428;2023-09-12T04:44:06;100652.16;;;20.64;59.10
75420;BME280;63998;52.488;13.428;2023-09-12T04:46:31;100653.84;;;20.65;59.14
75420;BME280;63998;52.488;13.428;2023-09-12T04:48:56;100664.41;;;20.65;58.95
75420;BME280;63998;52.488;13.428;2023-09-12T04:51:22;100649.38;;;20.67;58.92
75420;BME280;63998;52.488;13.428;2023-09-12T04:53:47;100653.72;;;20.68;58.87
75420;BME280;63998;52.488;13.428;2023-09-12T04:56:16;100651.16;;;20.66;58.70
75420;BME280;63998;52.488;13.428;2023-09-12T04:58:42;100653.78;;;20.66;59.20
75420;BME280;63998;52.488;13.428;2023-09-12T05:01:07;100658.09;;;20.69;58.95
75420;BME280;63998;52.488;13.428;2023-09-12T05:03:33;100651.78;;;20.73;58.93
75420;BME280;63998;52.488;13.428;2023-09-12T05:05:58;100653.38;;;20.77;58.93
75420;BME280;63998;52.488;13.428;2023-09-12T05:08:24;100655.06;;;20.78;58.95
75420;BME280;63998;52.488;13.428;2023-09-12T05:10:49;100670.19;;;20.74;59.49
75420;BME280;63998;52.488;13.428;2023-09-12T05:13:15;100676.44;;;20.72;60.21
75420;BME280;63998;52.488;13.428;2023-09-12T05:15:41;100679.16;;;20.70;60.23
75420;BME280;63998;52.488;13.428;2023-09-12T05:18:07;100669.34;;;20.74;60.15
75420;BME280;63998;52.488;13.428;2023-09-12T05:20:33;100670.91;;;20.78;60.14
75420;BME280;63998;52.488;13.428;2023-09-12T05:22:58;100665.56;;;20.79;59.75
75420;BME280;63998;52.488;13.428;2023-09-12T05:25:24;100661.94;;;20.82;59.09
75420;BME280;63998;52.488;13.428;2023-09-12T05:27:50;100667.84;;;20.89;58.41
75420;BME280;63998;52.488;13.428;2023-09-12T05:30:15;100677.28;;;20.94;58.23
75420;BME280;63998;52.488;13.428;2023-09-12T05:32:41;100675.44;;;20.96;57.79
75420;BME280;63998;52.488;13.428;2023-09-12T05:35:07;100673.31;;;21.04;57.74
75420;BME280;63998;52.488;13.428;2023-09-12T05:37:32;100674.63;;;21.14;57.92
75420;BME280;63998;52.488;13.428;2023-09-12T05:39:57;100671.00;;;21.19;57.14
75420;BME280;63998;52.488;13.428;2023-09-12T05:42:23;100677.75;;;21.26;56.77
75420;BME280;63998;52.488;13.428;2023-09-12T05:44:49;100682.88;;;21.29;56.42
75420;BME280;63998;52.488;13.428;2023-09-12T05:47:19;100685.25;;;21.35;56.25
75420;BME280;63998;52.488;13.428;2023-09-12T05:49:44;100682.63;;;21.35;55.95
75420;BME280;63998;52.488;13.428;2023-09-12T05:52:10;100682.34;;;21.41;55.31
75420;BME280;63998;52.488;13.428;2023-09-12T05:54:36;100682.34;;;21.41;55.31
75420;BME280;63998;52.488;13.428;2023-09-12T05:57:02;100686.38;;;21.49;55.24
75420;BME280;63998;52.488;13.428;2023-09-12T05:59:27;100684.19;;;21.59;55.16
75420;BME280;63998;52.488;13.428;2023-09-12T06:01:53;100685.78;;;21.63;54.41
75420;BME280;63998;52.488;13.428;2023-09-12T06:04:18;100682.97;;;21.66;54.47
75420;BME280;63998;52.488;13.428;2023-09-12T06:06:45;100688.25;;;21.66;54.23
75420;BME280;63998;52.488;13.428;2023-09-12T06:09:10;100685.56;;;21.68;54.10
75420;BME280;63998;52.488;13.428;2023-09-12T06:11:36;100690.66;;;21.72;54.11
75420;BME280;63998;52.488;13.428;2023-09-12T06:14:01;100694.09;;;21.74;54.07
75420;BME280;63998;52.488;13.428;2023-09-12T06:16:27;100698.72;;;21.69;53.82
75420;BME280;63998;52.488;13.428;2023-09-12T06:18:52;100696.34;;;21.63;54.48
75420;BME280;63998;52.488;13.428;2023-09-12T06:21:19;100691.50;;;21.52;53.71
75420;BME280;63998;52.488;13.428;2023-09-12T06:24:00;100698.47;;;21.35;54.34
75420;BME280;63998;52.488;13.428;2023-09-12T06:26:31;100688.66;;;21.16;54.84
75420;BME280;63998;52.488;13.428;2023-09-12T06:28:57;100691.13;;;21.21;55.18
75420;BME280;63998;52.488;13.428;2023-09-12T06:31:22;100694.13;;;21.34;54.96
75420;BME280;63998;52.488;13.428;2023-09-12T06:33:48;100700.03;;;21.39;55.63
75420;BME280;63998;52.488;13.428;2023-09-12T06:36:13;100693.06;;;21.38;55.32
75420;BME280;63998;52.488;13.428;2023-09-12T06:38:38;100690.81;;;21.49;54.84
75420;BME280;63998;52.488;13.428;2023-09-12T06:41:04;100696.69;;;21.56;55.08
75420;BME280;63998;52.488;13.428;2023-09-12T06:43:30;100703.25;;;21.66;54.71
75420;BME280;63998;52.488;13.428;2023-09-12T06:45:55;100714.56;;;21.69;55.13
75420;BME280;63998;52.488;13.428;2023-09-12T06:48:21;100709.03;;;21.75;54.58
75420;BME280;63998;52.488;13.428;2023-09-12T06:50:46;100706.09;;;21.81;54.55
75420;BME280;63998;52.488;13.428;2023-09-12T06:53:11;100711.19;;;21.86;54.60
75420;BME280;63998;52.488;13.428;2023-09-12T06:55:37;100714.47;;;21.91;54.49
75420;BME280;63998;52.488;13.428;2023-09-12T06:58:02;100715.19;;;21.95;54.49
75420;BME280;63998;52.488;13.428;2023-09-12T07:00:28;100712.41;;;21.98;54.35
75420;BME280;63998;52.488;13.428;2023-09-12T07:02:54;100712.81;;;22.09;54.14
75420;BME280;63998;52.488;13.428;2023-09-12T07:05:19;100714.03;;;22.20;53.79
75420;BME280;63998;52.488;13.428;2023-09-12T07:07:44;100718.81;;;22.31;53.80
75420;BME280;63998;52.488;13.428;2023-09-12T07:10:10;100725.38;;;22.41;53.54
75420;BME280;63998;52.488;13.428;2023-09-12T07:12:35;100727.81;;;22.46;52.65
75420;BME280;63998;52.488;13.428;2023-09-12T07:15:01;100710.63;;;22.54;52.57
75420;BME280;63998;52.488;13.428;2023-09-12T07:17:27;100714.47;;;22.66;52.30
75420;BME280;63998;52.488;13.428;2023-09-12T07:19:53;100720.06;;;22.79;51.87
75420;BME280;63998;52.488;13.428;2023-09-12T07:22:18;100714.63;;;22.82;51.52
75420;BME280;63998;52.488;13.428;2023-09-12T07:24:43;100723.06;;;22.90;51.63
75420;BME280;63998;52.488;13.428;2023-09-12T07:27:09;100722.44;;;23.02;51.38
75420;BME280;63998;52.488;13.428;2023-09-12T07:29:34;100718.41;;;23.12;51.33
75420;BME280;63998;52.488;13.428;2023-09-12T07:32:00;100719.81;;;23.19;50.92
75420;BME280;63998;52.488;13.428;2023-09-12T07:34:25;100715.13;;;23.24;50.82
75420;BME280;63998;52.488;13.428;2023-09-12T07:36:51;100712.03;;;23.34;50.66
75420;BME280;63998;52.488;13.428;2023-09-12T07:39:17;100698.28;;;23.43;50.36
75420;BME280;63998;52.488;13.428;2023-09-12T07:41:42;100697.75;;;23.53;50.29
75420;BME280;63998;52.488;13.428;2023-09-12T07:44:07;100693.94;;;23.59;49.83
75420;BME280;63998;52.488;13.428;2023-09-12T07:46:36;100692.50;;;23.69;49.79
75420;BME280;63998;52.488;13.428;2023-09-12T07:49:01;100701.75;;;23.78;49.59
75420;BME280;63998;52.488;13.428;2023-09-12T07:51:26;100698.63;;;23.87;49.26
75420;BME280;63998;52.488;13.428;2023-09-12T07:53:52;100698.22;;;23.94;49.37
75420;BME280;63998;52.488;13.428;2023-09-12T07:56:17;100703.97;;;24.03;49.34
75420;BME280;63998;52.488;13.428;2023-09-12T07:58:42;100687.44;;;24.13;49.35
75420;BME280;63998;52.488;13.428;2023-09-12T08:01:09;100696.56;;;24.25;49.09
75420;BME280;63998;52.488;13.428;2023-09-12T08:03:35;100692.47;;;24.35;49.03
75420;BME280;63998;52.488;13.428;2023-09-12T08:06:01;100697.25;;;24.44;48.88
75420;BME280;63998;52.488;13.428;2023-09-12T08:08:28;100710.94;;;24.52;48.32
75420;BME280;63998;52.488;13.428;2023-09-12T08:10:53;100712.16;;;24.62;48.64
75420;BME280;63998;52.488;13.428;2023-09-12T08:13:18;100705.38;;;24.73;48.17
75420;BME280;63998;52.488;13.428;2023-09-12T08:15:44;100712.91;;;24.80;48.29
75420;BME280;63998;52.488;13.428;2023-09-12T08:18:10;100710.25;;;24.80;47.41
75420;BME280;63998;52.488;13.428;2023-09-12T08:20:35;100712.28;;;24.91;47.64
75420;BME280;63998;52.488;13.428;2023-09-12T08:23:01;100695.66;;;25.03;47.53
75420;BME280;63998;52.488;13.428;2023-09-12T08:25:26;100698.22;;;25.04;46.58
75420;BME280;63998;52.488;13.428;2023-09-12T08:27:52;100694.94;;;25.15;47.09
75420;BME280;63998;52.488;13.428;2023-09-12T08:30:17;100712.81;;;25.27;46.36
75420;BME280;63998;52.488;13.428;2023-09-12T08:32:43;100711.59;;;25.33;46.10
75420;BME280;63998;52.488;13.428;2023-09-12T08:35:10;100712.94;;;25.40;45.73
75420;BME280;63998;52.488;13.428;2023-09-12T08:37:36;100708.00;;;25.48;46.21
75420;BME280;63998;52.488;13.428;2023-09-12T08:40:01;100703.00;;;25.58;46.28
75420;BME280;63998;52.488;13.428;2023-09-12T08:42:27;100699.03;;;25.65;45.79
75420;BME280;63998;52.488;13.428;2023-09-12T08:44:55;100703.78;;;25.74;45.67
75420;BME280;63998;52.488;13.428;2023-09-12T08:47:23;100705.13;;;25.81;45.18
75420;BME280;63998;52.488;13.428;2023-09-12T08:49:50;100706.44;;;25.88;45.46
75420;BME280;63998;52.488;13.428;2023-09-12T08:52:15;100708.53;;;25.97;45.30
75420;BME280;63998;52.488;13.428;2023-09-12T08:54:41;100708.94;;;26.05;45.13
75420;BME280;63998;52.488;13.428;2023-09-12T08:57:06;100714.13;;;26.21;44.98
75420;BME280;63998;52.488;13.428;2023-09-12T08:59:33;100715.50;;;26.28;44.20
75420;BME280;63998;52.488;13.428;2023-09-12T09:02:00;100714.03;;;26.37;43.87
75420;BME280;63998;52.488;13.428;2023-09-12T09:04:28;100712.50;;;26.47;43.60
75420;BME280;63998;52.488;13.428;2023-09-12T09:06:57;100718.19;;;26.55;42.85
75420;BME280;63998;52.488;13.428;2023-09-12T09:09:23;100725.00;;;26.59;42.41
75420;BME280;63998;52.488;13.428;2023-09-12T09:11:49;100726.16;;;26.69;42.17
75420;BME280;63998;52.488;13.428;2023-09-12T09:14:15;100725.53;;;26.78;42.99
75420;BME280;63998;52.488;13.428;2023-09-12T09:16:41;100727.88;;;26.83;43.06
75420;BME280;63998;52.488;13.428;2023-09-12T09:19:06;100714.75;;;26.94;42.92
75420;BME280;63998;52.488;13.428;2023-09-12T09:21:35;100720.53;;;27.01;43.01
75420;BME280;63998;52.488;13.428;2023-09-12T09:24:04;100716.28;;;27.11;43.17
75420;BME280;63998;52.488;13.428;2023-09-12T09:26:49;100730.59;;;27.23;42.99
75420;BME280;63998;52.488;13.428;2023-09-12T09:29:19;100742.59;;;27.30;42.80
75420;BME280;63998;52.488;13.428;2023-09-12T09:31:47;100742.25;;;27.34;43.17
75420;BME280;63998;52.488;13.428;2023-09-12T09:34:13;100739.19;;;27.40;43.02
75420;BME280;63998;52.488;13.428;2023-09-12T09:36:42;100743.69;;;27.52;43.33
75420;BME280;63998;52.488;13.428;2023-09-12T09:39:09;100740.72;;;27.57;43.16
75420;BME280;63998;52.488;13.428;2023-09-12T09:41:34;100744.03;;;27.61;43.33
75420;BME280;63998;52.488;13.428;2023-09-12T09:44:01;100739.66;;;27.60;43.83
75420;BME280;63998;52.488;13.428;2023-09-12T09:46:26;100748.41;;;27.62;43.89
75420;BME280;63998;52.488;13.428;2023-09-12T09:48:52;100736.88;;;27.74;44.06
75420;BME280;63998;52.488;13.428;2023-09-12T09:51:18;100736.22;;;27.83;43.96
75420;BME280;63998;52.488;13.428;2023-09-12T09:53:44;100735.63;;;27.92;43.47
75420;BME280;63998;52.488;13.428;2023-09-12T09:56:11;100737.31;;;27.93;43.78
75420;BME280;63998;52.488;13.428;2023-09-12T09:58:45;100737.94;;;27.84;43.67
75420;BME280;63998;52.488;13.428;2023-09-12T10:01:12;100742.88;;;27.90;43.92
75420;BME280;63998;52.488;13.428;2023-09-12T10:03:39;100734.66;;;27.93;43.96
75420;BME280;63998;52.488;13.428;2023-09-12T10:06:07;100738.38;;;28.03;43.82
75420;BME280;63998;52.488;13.428;2023-09-12T10:08:34;100734.53;;;27.82;44.23
75420;BME280;63998;52.488;13.428;2023-09-12T10:11:01;100742.22;;;27.74;44.56
75420;BME280;63998;52.488;13.428;2023-09-12T10:13:27;100750.78;;;27.79;44.72
75420;BME280;63998;52.488;13.428;2023-09-12T10:15:58;100734.75;;;27.79;44.78
75420;BME280;63998;52.488;13.428;2023-09-12T10:18:28;100721.19;;;27.82;44.79
75420;BME280;63998;52.488;13.428;2023-09-12T10:21:00;100723.00;;;27.94;44.52
75420;BME280;63998;52.488;13.428;2023-09-12T10:23:34;100726.00;;;28.02;44.73
75420;BME280;63998;52.488;13.428;2023-09-12T10:26:07;100721.69;;;28.12;44.30
75420;BME280;63998;52.488;13.428;2023-09-12T10:28:33;100719.13;;;28.23;44.16
75420;BME280;63998;52.488;13.428;2023-09-12T10:30:59;100701.16;;;28.38;44.25
75420;BME280;63998;52.488;13.428;2023-09-12T10:33:26;100703.84;;;28.62;43.86
75420;BME280;63998;52.488;13.428;2023-09-12T10:35:57;100696.69;;;28.86;43.50
75420;BME280;63998;52.488;13.428;2023-09-12T10:38:25;100692.50;;;29.06;43.09
75420;BME280;63998;52.488;13.428;2023-09-12T10:40:53;100691.66;;;29.06;42.45
75420;BME280;63998;52.488;13.428;2023-09-12T10:43:20;100694.59;;;29.14;42.60
75420;BME280;63998;52.488;13.428;2023-09-12T10:45:47;100693.91;;;29.23;42.11
75420;BME280;63998;52.488;13.428;2023-09-12T10:48:13;100695.38;;;29.27;42.01
75420;BME280;63998;52.488;13.428;2023-09-12T10:50:39;100697.63;;;29.44;42.24
75420;BME280;63998;52.488;13.428;2023-09-12T10:53:11;100701.03;;;29.46;41.57
75420;BME280;63998;52.488;13.428;2023-09-12T10:55:37;100699.84;;;29.61;41.32
75420;BME280;63998;52.488;13.428;2023-09-12T10:58:08;100691.09;;;29.71;40.87
75420;BME280;63998;52.488;13.428;2023-09-12T11:00:35;100697.19;;;29.95;40.99
75420;BME280;63998;52.488;13.428;2023-09-12T11:05:53;100688.06;;;30.09;40.43
75420;BME280;63998;52.488;13.428;2023-09-12T11:08:19;100690.59;;;30.32;39.67
75420;BME280;63998;52.488;13.428;2023-09-12T11:10:44;100692.53;;;30.53;39.09
75420;BME280;63998;52.488;13.428;2023-09-12T11:13:17;100697.59;;;30.67;38.13
75420;BME280;63998;52.488;13.428;2023-09-12T11:16:10;100696.84;;;30.76;37.79
75420;BME280;63998;52.488;13.428;2023-09-12T11:19:03;100693.16;;;30.88;38.22
75420;BME280;63998;52.488;13.428;2023-09-12T11:21:31;100686.75;;;31.00;38.08
75420;BME280;63998;52.488;13.428;2023-09-12T11:23:57;100691.16;;;31.01;37.87
75420;BME280;63998;52.488;13.428;2023-09-12T11:26:24;100686.66;;;31.23;37.97
75420;BME280;63998;52.488;13.428;2023-09-12T11:28:49;100681.41;;;31.42;36.91
75420;BME280;63998;52.488;13.428;2023-09-12T11:31:27;100673.25;;;31.53;37.17
75420;BME280;63998;52.488;13.428;2023-09-12T11:33:53;100680.44;;;31.64;36.95
75420;BME280;63998;52.488;13.428;2023-09-12T11:36:19;100680.75;;;31.70;37.20
75420;BME280;63998;52.488;13.428;2023-09-12T11:38:49;100684.41;;;31.69;36.61
75420;BME280;63998;52.488;13.428;2023-09-12T11:41:14;100681.00;;;31.67;36.92
75420;BME280;63998;52.488;13.428;2023-09-12T11:43:40;100686.72;;;31.74;36.94
75420;BME280;63998;52.488;13.428;2023-09-12T11:46:07;100678.19;;;31.99;36.61
75420;BME280;63998;52.488;13.428;2023-09-12T11:48:32;100676.88;;;31.94;35.97
75420;BME280;63998;52.488;13.428;2023-09-12T11:50:58;100675.78;;;32.06;36.64
75420;BME280;63998;52.488;13.428;2023-09-12T11:53:25;100678.13;;;32.20;35.97
75420;BME280;63998;52.488;13.428;2023-09-12T11:55:57;100677.03;;;32.32;35.81
75420;BME280;63998;52.488;13.428;2023-09-12T11:58:24;100672.84;;;32.59;36.11
75420;BME280;63998;52.488;13.428;2023-09-12T12:00:52;100679.66;;;32.82;35.26
75420;BME280;63998;52.488;13.428;2023-09-12T12:03:21;100676.00;;;32.83;34.28
75420;BME280;63998;52.488;13.428;2023-09-12T12:05:47;100672.31;;;32.94;34.60
75420;BME280;63998;52.488;13.428;2023-09-12T12:08:13;100665.66;;;32.88;34.91
75420;BME280;63998;52.488;13.428;2023-09-12T12:10:40;100672.59;;;32.71;34.87
75420;BME280;63998;52.488;13.428;2023-09-12T12:13:09;100678.47;;;32.27;35.89
75420;BME280;63998;52.488;13.428;2023-09-12T12:15:35;100681.69;;;32.30;35.30
75420;BME280;63998;52.488;13.428;2023-09-12T12:18:01;100670.56;;;32.54;35.03
75420;BME280;63998;52.488;13.428;2023-09-12T12:20:27;100676.66;;;32.66;34.22
75420;BME280;63998;52.488;13.428;2023-09-12T12:22:54;100672.59;;;33.00;34.30
75420;BME280;63998;52.488;13.428;2023-09-12T12:25:19;100676.53;;;33.35;34.16
75420;BME280;63998;52.488;13.428;2023-09-12T12:27:45;100673.31;;;33.68;32.95
75420;BME280;63998;52.488;13.428;2023-09-12T12:30:13;100682.56;;;33.56;33.28
75420;BME280;63998;52.488;13.428;2023-09-12T12:32:42;100678.06;;;33.94;32.71
75420;BME280;63998;52.488;13.428;2023-09-12T12:35:09;100680.03;;;33.92;31.66
75420;BME280;63998;52.488;13.428;2023-09-12T12:37:36;100673.38;;;34.23;32.26
75420;BME280;63998;52.488;13.428;2023-09-12T12:40:02;100672.09;;;34.63;31.55
75420;BME280;63998;52.488;13.428;2023-09-12T12:42:37;100663.72;;;34.66;30.46
75420;BME280;63998;52.488;13.428;2023-09-12T12:45:10;100666.44;;;34.83;30.62